Time;durP1;ratioP1;P1;durP2;ratioP2;P2;SDS_P1;SDS_P2;PMS_P1;PMS_P2;Temp;Humidity;BMP_temperature;BMP_pressure;BME280_temperature;BME280_humidity;BME280_pressure;Samples;Min_cycle;Max_cycle;Signal;HPM_P1;HPM_P2
2022/09/11 00:01:08;;;;;;;8.50;4.00;;;;;;;21.14;62.85;100081.89;117162;1187;21895;-63
2022/09/11 00:03:35;;;;;;;7.00;3.50;;;;;;;21.04;62.97;100086.40;117144;1188;21845;-69
2022/09/11 00:06:07;;;;;;;8.00;3.90;;;;;;;20.96;62.80;100087.45;117122;1186;23576;-69
2022/09/11 00:08:34;;;;;;;8.20;3.30;;;;;;;20.89;62.83;100086.98;117214;1182;21854;-69
2022/09/11 00:11:06;;;;;;;7.30;3.40;;;;;;;20.83;63.55;100080.90;117054;1188;21853;-70
2022/09/11 00:13:34;;;;;;;5.40;3.10;;;;;;;20.77;63.44;100078.21;117092;1186;21864;-65
2022/09/11 00:16:04;;;;;;;6.00;3.50;;;;;;;20.68;63.26;100078.90;117271;1188;23724;-66
2022/09/11 00:18:34;;;;;;;6.00;2.60;;;;;;;20.57;62.65;100073.31;117278;1186;23479;-72
2022/09/11 00:21:03;;;;;;;4.40;1.90;;;;;;;20.43;62.00;100070.23;117243;1186;21857;-64
2022/09/11 00:23:30;;;;;;;3.60;1.80;;;;;;;20.26;61.64;100067.63;117266;1186;23571;-65
2022/09/11 00:26:01;;;;;;;4.10;1.90;;;;;;;20.10;61.67;100073.71;117184;1186;23460;-65
2022/09/11 00:28:28;;;;;;;4.60;1.70;;;;;;;19.91;61.70;100073.35;116902;1184;22936;-65
2022/09/11 00:30:58;;;;;;;2.60;1.60;;;;;;;19.87;61.57;100074.44;116849;1187;22825;-65
2022/09/11 00:33:26;;;;;;;7.90;2.60;;;;;;;19.80;61.55;100073.00;117151;1187;23352;-64
2022/09/11 00:35:55;;;;;;;3.70;1.70;;;;;;;19.54;61.47;100078.17;117206;1187;21864;-69
2022/09/11 00:38:24;;;;;;;3.60;1.20;;;;;;;19.30;61.47;100081.23;117208;1188;22997;-69
2022/09/11 00:40:51;;;;;;;3.30;1.60;;;;;;;19.18;61.24;100069.10;117306;1183;21859;-69
2022/09/11 00:43:18;;;;;;;2.40;1.40;;;;;;;19.07;61.50;100057.56;117025;1186;23476;-70
2022/09/11 00:45:48;;;;;;;4.40;2.00;;;;;;;18.97;61.94;100050.77;117102;1187;23558;-69
2022/09/11 00:48:16;;;;;;;;;;;;;;;18.90;61.79;100045.06;117188;1189;23110;-65
2022/09/11 00:50:44;;;;;;;4.10;1.60;;;;;;;18.83;61.99;100043.30;117118;1187;24244;-68
2022/09/11 00:53:13;;;;;;;5.30;1.80;;;;;;;18.81;61.69;100041.63;117070;1186;23464;-65
2022/09/11 00:55:40;;;;;;;2.70;1.60;;;;;;;18.83;61.88;100031.91;117139;1189;23440;-66
2022/09/11 00:58:10;;;;;;;3.20;1.50;;;;;;;18.87;61.93;100029.91;116953;1189;21916;-69
2022/09/11 01:00:38;;;;;;;3.90;1.80;;;;;;;18.90;62.00;100025.19;117112;1187;22144;-66
2022/09/11 01:03:05;;;;;;;3.80;1.70;;;;;;;18.89;62.29;100029.33;117065;1188;23040;-65
2022/09/11 01:05:33;;;;;;;4.30;1.80;;;;;;;18.85;62.24;100024.52;117146;1188;21857;-65
2022/09/11 01:08:01;;;;;;;3.80;2.00;;;;;;;18.82;62.10;100016.88;117020;1189;23892;-69
2022/09/11 01:10:41;;;;;;;6.30;2.30;;;;;;;18.80;62.37;100018.58;117201;1180;22918;-69
2022/09/11 01:13:31;;;;;;;4.00;1.90;;;;;;;18.78;62.56;100008.89;117151;1184;23488;-70
2022/09/11 01:16:02;;;;;;;;;;;;;;;18.77;62.69;99987.09;117142;1190;21846;-69
2022/09/11 01:18:38;;;;;;;5.90;2.20;;;;;;;18.77;62.73;99974.45;117109;1189;23641;-66
2022/09/11 01:21:27;;;;;;;5.40;2.40;;;;;;;18.77;62.56;99966.31;117170;1186;23003;-69
2022/09/11 01:24:08;;;;;;;3.70;1.90;;;;;;;18.79;62.75;99963.34;117053;1187;21902;-65
2022/09/11 01:26:54;;;;;;;8.40;2.30;;;;;;;18.84;62.41;99967.02;117051;1189;23457;-65
2022/09/11 01:29:48;;;;;;;3.60;2.30;;;;;;;18.90;62.58;99969.35;117314;1186;23015;-65
2022/09/11 01:32:23;;;;;;;9.20;3.10;;;;;;;18.97;62.55;99968.67;117187;1187;23453;-70
2022/09/11 01:35:03;;;;;;;4.70;2.10;;;;;;;19.03;62.58;99971.00;116927;1187;21912;-65
2022/09/11 01:37:38;;;;;;;7.50;2.50;;;;;;;19.08;62.62;99977.66;117129;1182;23478;-70
2022/09/11 01:40:17;;;;;;;5.00;2.40;;;;;;;19.13;62.68;99979.16;117127;1186;23707;-70
2022/09/11 01:42:45;;;;;;;6.00;3.00;;;;;;;19.18;62.84;99979.80;117298;1186;22701;-65
2022/09/11 01:45:12;;;;;;;6.10;2.70;;;;;;;19.22;62.96;99973.55;117199;1189;21856;-70
2022/09/11 01:47:41;;;;;;;5.90;2.60;;;;;;;19.26;62.91;99967.98;117209;1188;21862;-71
2022/09/11 01:50:09;;;;;;;4.80;2.80;;;;;;;19.33;62.63;99959.77;117212;1188;23451;-70
2022/09/11 01:52:58;;;;;;;4.80;2.30;;;;;;;19.38;62.89;99953.27;117236;1186;23506;-64
2022/09/11 01:55:48;;;;;;;6.30;2.30;;;;;;;19.43;62.69;99949.23;117263;1185;21888;-64
2022/09/11 01:58:21;;;;;;;5.80;2.60;;;;;;;19.49;62.65;99951.21;117206;1186;23472;-71
2022/09/11 02:00:50;;;;;;;5.80;2.80;;;;;;;19.55;62.86;99943.06;117141;1188;21847;-70
2022/09/11 02:03:24;;;;;;;7.60;2.80;;;;;;;19.58;62.65;99940.23;117201;1188;21852;-63
2022/09/11 02:05:56;;;;;;;6.50;3.00;;;;;;;19.59;63.13;99936.42;117226;1187;21853;-70
2022/09/11 02:08:42;;;;;;;6.70;3.10;;;;;;;19.64;63.05;99939.53;117171;1186;23525;-64
2022/09/11 02:11:11;;;;;;;4.70;2.90;;;;;;;19.73;62.87;99933.85;116913;1189;23452;-63
2022/09/11 02:13:41;;;;;;;6.40;3.20;;;;;;;19.81;62.77;99933.23;117088;1188;21858;-70
2022/09/11 02:16:16;;;;;;;8.00;3.40;;;;;;;19.87;62.80;99934.84;117215;1188;22468;-69
2022/09/11 02:19:06;;;;;;;7.10;3.20;;;;;;;19.92;62.75;99929.39;117224;1189;22990;-63
2022/09/11 02:21:35;;;;;;;7.90;3.60;;;;;;;19.98;62.75;99939.02;116988;1188;23580;-70
2022/09/11 02:24:03;;;;;;;6.40;3.10;;;;;;;20.04;62.91;99942.63;117046;1189;21860;-64
2022/09/11 02:26:32;;;;;;;7.00;3.70;;;;;;;20.06;62.71;99939.12;117301;1187;21859;-64
2022/09/11 02:29:00;;;;;;;5.80;3.70;;;;;;;20.08;63.13;99939.17;117113;1186;24194;-69
2022/09/11 02:31:27;;;;;;;6.60;3.40;;;;;;;20.10;63.10;99941.17;116984;1186;21852;-70
2022/09/11 02:33:54;;;;;;;6.30;3.60;;;;;;;20.13;63.23;99939.59;116881;1189;21859;-64
2022/09/11 02:36:31;;;;;;;6.50;3.70;;;;;;;20.17;63.48;99935.45;117170;1185;21860;-64
2022/09/11 02:39:09;;;;;;;5.70;3.80;;;;;;;20.20;63.39;99926.36;117247;1186;22922;-64
2022/09/11 02:41:58;;;;;;;7.00;4.00;;;;;;;20.24;63.52;99920.60;117264;1181;23557;-69
2022/09/11 02:45:19;;;;;;;7.60;4.20;;;;;;;20.29;63.71;99921.91;117181;1183;22781;-64
2022/09/11 02:48:27;;;;;;;6.80;3.40;;;;;;;20.35;63.61;99921.50;116767;1190;22216;-64
2022/09/11 02:50:55;;;;;;;6.20;3.70;;;;;;;20.41;63.64;99925.82;116918;1185;23480;-70
2022/09/11 02:53:31;;;;;;;9.20;4.10;;;;;;;20.45;63.56;99930.37;116925;1188;21898;-64
2022/09/11 02:56:16;;;;;;;8.40;4.50;;;;;;;20.47;63.83;99932.73;116921;1188;21899;-64
2022/09/11 02:58:56;;;;;;;5.90;4.10;;;;;;;20.49;63.66;99930.67;116891;1186;22626;-70
2022/09/11 03:01:23;;;;;;;11.20;4.60;;;;;;;20.52;63.62;99929.84;117217;1186;22197;-69
2022/09/11 03:03:51;;;;;;;7.80;4.70;;;;;;;20.52;63.48;99923.38;117174;1188;22649;-69
2022/09/11 03:06:20;;;;;;;7.80;4.30;;;;;;;20.54;63.45;99920.05;117248;1184;23612;-69
2022/09/11 03:08:47;;;;;;;6.40;4.50;;;;;;;20.56;63.39;99921.15;117186;1182;21858;-64
2022/09/11 03:11:16;;;;;;;7.70;5.00;;;;;;;20.59;63.41;99916.34;117194;1185;22940;-70
2022/09/11 03:13:44;;;;;;;7.60;4.80;;;;;;;20.62;63.64;99913.84;117139;1188;22634;-64
2022/09/11 03:16:12;;;;;;;6.10;3.90;;;;;;;20.64;63.65;99908.50;117285;1186;22718;-69
2022/09/11 03:18:39;;;;;;;5.90;3.60;;;;;;;20.69;63.40;99898.66;117212;1185;21871;-69
2022/09/11 03:21:06;;;;;;;6.40;3.70;;;;;;;20.71;63.39;99895.84;117023;1186;22632;-64
2022/09/11 03:23:33;;;;;;;8.70;4.00;;;;;;;20.79;63.29;99891.98;117006;1186;22983;-70
2022/09/11 03:26:00;;;;;;;9.20;4.20;;;;;;;20.80;63.28;99893.30;117065;1186;22630;-69
2022/09/11 03:28:29;;;;;;;10.50;4.50;;;;;;;20.80;63.44;99892.07;117068;1189;23958;-69
2022/09/11 03:30:58;;;;;;;7.20;4.40;;;;;;;20.83;63.39;99890.13;117041;1189;23298;-69
2022/09/11 03:33:25;;;;;;;7.30;4.10;;;;;;;20.84;63.70;99892.77;117109;1186;22997;-65
2022/09/11 03:35:52;;;;;;;6.80;3.80;;;;;;;20.81;63.74;99894.54;117015;1186;22618;-70
2022/09/11 03:38:19;;;;;;;9.00;3.30;;;;;;;20.77;63.68;99902.25;117162;1186;22958;-65
2022/09/11 03:40:46;;;;;;;5.70;3.50;;;;;;;20.72;63.41;99903.06;117198;1187;24179;-65
2022/09/11 03:43:15;;;;;;;10.20;3.20;;;;;;;20.69;63.32;99903.96;117181;1183;22958;-70
2022/09/11 03:45:43;;;;;;;5.70;2.90;;;;;;;20.68;63.29;99907.27;117091;1186;21887;-70
2022/09/11 03:48:11;;;;;;;5.80;2.80;;;;;;;20.69;63.52;99909.53;117227;1185;22175;-65
2022/09/11 03:50:38;;;;;;;7.00;3.40;;;;;;;20.68;63.31;99907.08;117194;1186;23556;-66
2022/09/11 03:53:05;;;;;;;13.30;3.70;;;;;;;20.67;63.42;99901.95;117240;1182;21878;-70
2022/09/11 03:55:32;;;;;;;18.70;3.40;;;;;;;20.65;63.45;99895.29;117203;1183;23557;-69
2022/09/11 03:57:59;;;;;;;8.00;3.80;;;;;;;20.63;63.67;99895.98;117187;1183;22938;-64
2022/09/11 04:00:26;;;;;;;5.30;3.20;;;;;;;20.58;63.83;99898.22;117297;1183;24151;-70
2022/09/11 04:02:54;;;;;;;9.00;3.10;;;;;;;20.52;63.68;99897.70;117299;1187;21857;-70
2022/09/11 04:05:25;;;;;;;8.10;3.20;;;;;;;20.47;63.53;99900.48;117232;1186;22809;-70
2022/09/11 04:07:52;;;;;;;5.10;2.90;;;;;;;20.45;63.38;99901.52;117280;1186;23452;-70
2022/09/11 04:10:20;;;;;;;8.10;3.00;;;;;;;20.42;63.35;99901.33;117064;1182;22619;-70
2022/09/11 04:12:47;;;;;;;8.50;3.40;;;;;;;20.41;63.33;99906.95;117176;1188;24069;-64
2022/09/11 04:15:14;;;;;;;6.30;3.10;;;;;;;20.40;63.31;99912.17;117234;1186;23557;-69
2022/09/11 04:17:42;;;;;;;6.80;3.70;;;;;;;20.39;63.37;99915.27;117140;1187;21868;-64
2022/09/11 04:20:09;;;;;;;8.30;3.70;;;;;;;20.39;63.44;99915.10;117287;1183;23557;-64
2022/09/11 04:22:38;;;;;;;36.40;4.70;;;;;;;20.39;63.41;99912.90;117190;1186;22930;-71
2022/09/11 04:25:06;;;;;;;14.50;4.40;;;;;;;20.41;63.35;99906.95;118864;1187;23544;-65
2022/09/11 04:27:33;;;;;;;7.30;3.30;;;;;;;20.39;63.23;99900.44;119068;1183;22141;-69
2022/09/11 04:30:00;;;;;;;6.90;2.60;;;;;;;20.43;63.35;99901.46;119242;1186;21783;-65
2022/09/11 04:32:28;;;;;;;10.70;3.60;;;;;;;20.51;63.32;99896.18;118237;1186;23452;-65
2022/09/11 04:34:55;;;;;;;8.50;3.00;;;;;;;20.56;63.22;99895.31;119123;1186;22236;-65
2022/09/11 04:37:22;;;;;;;5.00;2.70;;;;;;;20.64;63.23;99897.59;119231;1185;22577;-71
2022/09/11 04:39:49;;;;;;;6.50;2.80;;;;;;;20.72;63.49;99896.10;118424;1183;22205;-65
2022/09/11 04:42:17;;;;;;;9.00;3.20;;;;;;;20.73;63.86;99895.88;117251;1185;21872;-70
2022/09/11 04:44:45;;;;;;;6.20;3.50;;;;;;;20.70;63.35;99893.38;117187;1186;21859;-64
2022/09/11 04:47:15;;;;;;;7.90;3.50;;;;;;;20.71;63.41;99895.48;117306;1185;23553;-71
2022/09/11 04:49:47;;;;;;;7.30;4.10;;;;;;;20.73;63.53;99897.83;117407;1188;21889;-70
2022/09/11 04:52:14;;;;;;;5.80;3.90;;;;;;;20.75;63.73;99900.91;117213;1184;22323;-64
2022/09/11 04:54:42;;;;;;;8.00;3.90;;;;;;;20.77;63.66;99901.01;117217;1188;23570;-70
2022/09/11 04:57:09;;;;;;;7.90;3.80;;;;;;;20.77;63.86;99900.80;117138;1186;21861;-71
2022/09/11 04:59:36;;;;;;;7.70;4.90;;;;;;;20.78;64.14;99895.76;117178;1182;23583;-71
2022/09/11 05:02:03;;;;;;;6.90;3.90;;;;;;;20.80;64.54;99890.15;117095;1182;21872;-71
2022/09/11 05:04:30;;;;;;;10.00;4.40;;;;;;;20.83;64.38;99886.40;117260;1183;21895;-71
2022/09/11 05:06:58;;;;;;;10.00;4.60;;;;;;;20.89;64.79;99884.91;117261;1186;23839;-64
2022/09/11 05:09:26;;;;;;;8.70;5.20;;;;;;;20.98;65.01;99888.67;117287;1188;22812;-68
2022/09/11 05:11:55;;;;;;;10.60;5.00;;;;;;;21.08;65.71;99887.99;117434;1180;22912;-73
2022/09/11 05:14:24;;;;;;;10.40;5.30;;;;;;;21.18;65.06;99891.11;117281;1185;23433;-63
2022/09/11 05:16:51;;;;;;;9.20;5.00;;;;;;;21.26;64.80;99889.70;117326;1186;22898;-71
2022/09/11 05:19:18;;;;;;;11.60;5.50;;;;;;;21.32;64.80;99890.61;117215;1188;21857;-63
2022/09/11 05:21:45;;;;;;;9.30;4.80;;;;;;;21.35;64.65;99891.45;117269;1183;23478;-63
2022/09/11 05:24:13;;;;;;;11.10;5.10;;;;;;;21.39;64.41;99892.46;117024;1177;23629;-63
2022/09/11 05:26:40;;;;;;;8.70;4.80;;;;;;;21.45;64.36;99893.64;117241;1182;23598;-71
2022/09/11 05:29:14;;;;;;;10.40;5.40;;;;;;;21.51;64.60;99893.27;117104;1189;22651;-62
2022/09/11 05:31:41;;;;;;;12.10;5.40;;;;;;;21.53;64.72;99895.09;117093;1182;23582;-71
2022/09/11 05:34:08;;;;;;;10.60;5.20;;;;;;;21.54;64.85;99898.63;116990;1183;22108;-71
2022/09/11 05:36:36;;;;;;;11.30;4.40;;;;;;;21.54;64.76;99898.79;117080;1186;23614;-71
2022/09/11 05:39:03;;;;;;;10.20;5.10;;;;;;;21.55;64.75;99897.10;117169;1188;21858;-71
2022/09/11 05:41:30;;;;;;;8.60;4.90;;;;;;;21.57;64.44;99892.34;117142;1182;23660;-62
2022/09/11 05:43:58;;;;;;;12.30;4.80;;;;;;;21.60;64.75;99893.23;117208;1183;23680;-63
2022/09/11 05:46:25;;;;;;;7.80;5.20;;;;;;;21.62;64.60;99892.44;117177;1183;21942;-71
2022/09/11 05:48:52;;;;;;;9.10;5.20;;;;;;;21.64;64.46;99892.29;117137;1186;22854;-71
2022/09/11 05:51:20;;;;;;;10.60;5.40;;;;;;;21.68;64.58;99893.95;117242;1186;21927;-61
2022/09/11 05:53:51;;;;;;;8.90;5.50;;;;;;;21.75;64.91;99892.09;117068;1183;21939;-70
2022/09/11 05:56:20;;;;;;;15.70;6.30;;;;;;;21.80;64.81;99894.27;117099;1183;22929;-62
2022/09/11 05:58:47;;;;;;;6.90;5.60;;;;;;;21.87;64.89;99894.12;117302;1186;21865;-61
2022/09/11 06:01:19;;;;;;;8.20;5.30;;;;;;;22.02;64.57;99892.45;117084;1182;24320;-69
2022/09/11 06:03:48;;;;;;;8.90;5.70;;;;;;;22.09;64.36;99891.58;117216;1186;22896;-70
2022/09/11 06:06:17;;;;;;;11.20;5.60;;;;;;;22.15;64.28;99894.92;117236;1188;21867;-70
2022/09/11 06:08:46;;;;;;;8.10;4.90;;;;;;;22.21;64.25;99900.46;117051;1182;21967;-69
2022/09/11 06:11:14;;;;;;;9.50;4.90;;;;;;;22.24;64.33;99901.32;117321;1186;22956;-70
2022/09/11 06:13:45;;;;;;;7.30;4.50;;;;;;;22.27;64.17;99901.07;117589;1187;21859;-70
2022/09/11 06:16:14;;;;;;;7.90;4.60;;;;;;;22.30;64.34;99906.42;117161;1183;22084;-61
2022/09/11 06:18:48;;;;;;;6.30;4.70;;;;;;;22.31;64.33;99907.13;117262;1186;21861;-68
2022/09/11 06:21:20;;;;;;;7.80;4.70;;;;;;;22.29;64.01;99907.06;117299;1185;21861;-70
2022/09/11 06:23:48;;;;;;;5.50;4.10;;;;;;;22.27;64.12;99903.95;117790;1186;22526;-61
2022/09/11 06:26:17;;;;;;;8.60;4.60;;;;;;;22.29;64.11;99903.32;117221;1186;23694;-61
2022/09/11 06:28:46;;;;;;;6.20;4.30;;;;;;;22.30;64.04;99902.84;117311;1186;23729;-61
2022/09/11 06:31:15;;;;;;;8.40;5.30;;;;;;;22.31;64.21;99905.63;116975;1186;22653;-69
2022/09/11 06:33:42;;;;;;;8.40;5.30;;;;;;;22.31;64.04;99906.88;117184;1187;22915;-60
2022/09/11 06:36:12;;;;;;;11.40;5.90;;;;;;;22.30;63.86;99907.18;117215;1186;21853;-61
2022/09/11 06:38:40;;;;;;;7.70;5.20;;;;;;;22.27;64.03;99907.50;117160;1186;21881;-68
2022/09/11 06:41:11;;;;;;;7.90;5.60;;;;;;;22.26;64.14;99908.70;117249;1188;22909;-69
2022/09/11 06:43:38;;;;;;;7.50;5.20;;;;;;;22.24;64.06;99909.52;118608;1187;22925;-69
2022/09/11 06:46:12;;;;;;;9.80;5.50;;;;;;;22.14;64.42;99912.86;116884;1187;22922;-60
2022/09/11 06:48:44;;;;;;;6.50;4.80;;;;;;;22.09;64.42;99911.75;117358;1186;22930;-67
2022/09/11 06:51:14;;;;;;;10.40;5.40;;;;;;;22.08;64.48;99915.81;117099;1186;24235;-60
2022/09/11 06:53:41;;;;;;;8.80;4.90;;;;;;;22.08;64.49;99914.55;117295;1185;21856;-60
2022/09/11 06:56:16;;;;;;;9.30;5.20;;;;;;;22.14;64.26;99914.27;117148;1187;21858;-68
2022/09/11 06:58:44;;;;;;;6.40;4.70;;;;;;;22.15;64.46;99912.97;117291;1183;22761;-67
2022/09/11 07:01:12;;;;;;;8.70;5.30;;;;;;;22.32;64.20;99918.65;117230;1188;21889;-60
2022/09/11 07:03:48;;;;;;;8.30;5.60;;;;;;;22.40;64.43;99922.39;117321;1186;23473;-69
2022/09/11 07:06:17;;;;;;;8.10;5.80;;;;;;;22.49;64.64;99925.53;117104;1186;22651;-68
2022/09/11 07:08:50;;;;;;;8.50;6.20;;;;;;;22.58;64.41;99924.05;117184;1188;21861;-68
2022/09/11 07:11:18;;;;;;;9.40;5.40;;;;;;;22.67;64.26;99919.32;118242;1185;21867;-68
2022/09/11 07:13:45;;;;;;;8.60;5.60;;;;;;;22.80;65.00;99919.23;116877;1187;21947;-66
2022/09/11 07:16:13;;;;;;;8.30;5.70;;;;;;;22.95;64.57;99916.98;117079;1186;22871;-67
2022/09/11 07:18:42;;;;;;;8.10;5.60;;;;;;;23.10;64.71;99918.77;117225;1187;21859;-59
2022/09/11 07:21:17;;;;;;;8.60;4.70;;;;;;;23.35;64.75;99918.98;117155;1185;23557;-66
2022/09/11 07:23:49;;;;;;;15.60;6.30;;;;;;;23.61;64.30;99919.76;117015;1185;22938;-64
2022/09/11 07:26:17;;;;;;;7.50;4.50;;;;;;;23.79;63.77;99918.06;117085;1184;24171;-64
2022/09/11 07:28:47;;;;;;;9.40;4.30;;;;;;;23.98;63.62;99919.00;117175;1183;22902;-61
2022/09/11 07:31:18;;;;;;;;;;;;;;;24.18;63.45;99917.45;117314;1187;22929;-62
2022/09/11 07:33:47;;;;;;;15.00;5.30;;;;;;;24.34;63.14;99914.80;117155;1188;21858;-61
2022/09/11 07:36:17;;;;;;;6.40;3.70;;;;;;;24.44;62.63;99912.44;117188;1188;23608;-64
2022/09/11 07:38:53;;;;;;;10.70;4.20;;;;;;;24.50;62.39;99916.29;117301;1186;21860;-62
2022/09/11 07:41:34;;;;;;;14.70;4.20;;;;;;;24.54;62.19;99915.27;117312;1183;22132;-63
2022/09/11 07:44:11;;;;;;;11.20;4.10;;;;;;;24.59;62.21;99915.39;117163;1186;22621;-64
2022/09/11 07:46:47;;;;;;;7.40;3.60;;;;;;;24.65;61.93;99911.90;117185;1180;22935;-65
2022/09/11 07:49:27;;;;;;;10.40;4.20;;;;;;;24.67;61.74;99913.91;117070;1187;21851;-62
2022/09/11 07:52:09;;;;;;;9.10;3.70;;;;;;;24.69;61.58;99918.77;117261;1183;22429;-63
2022/09/11 07:54:46;;;;;;;5.30;3.70;;;;;;;24.70;61.31;99922.64;117136;1185;22926;-62
2022/09/11 07:57:20;;;;;;;10.80;4.50;;;;;;;24.73;61.47;99929.19;116960;1183;22930;-62
2022/09/11 08:00:02;;;;;;;11.20;4.10;;;;;;;24.79;61.17;99923.52;117095;1187;21951;-62
2022/09/11 08:02:37;;;;;;;8.90;3.70;;;;;;;24.82;61.12;99924.73;117266;1180;22918;-62
2022/09/11 08:05:08;;;;;;;6.80;3.20;;;;;;;24.85;60.97;99927.17;117139;1186;23379;-62
2022/09/11 08:07:43;;;;;;;6.20;3.30;;;;;;;24.88;60.93;99927.30;117099;1183;22925;-63
2022/09/11 08:10:12;;;;;;;7.10;3.10;;;;;;;24.89;60.75;99925.98;117062;1182;23489;-63
2022/09/11 08:12:54;;;;;;;7.50;3.40;;;;;;;24.81;60.49;99928.27;117166;1186;22201;-62
2022/09/11 08:15:29;;;;;;;5.30;3.00;;;;;;;24.72;60.78;99926.26;117247;1185;21884;-63
2022/09/11 08:18:04;;;;;;;5.10;3.10;;;;;;;24.72;60.86;99929.48;117170;1186;22957;-62
2022/09/11 08:20:31;;;;;;;8.60;3.20;;;;;;;24.74;60.62;99924.65;117118;1186;25014;-63
2022/09/11 08:22:58;;;;;;;5.40;3.10;;;;;;;24.76;60.87;99925.69;117348;1183;21864;-62
2022/09/11 08:25:27;;;;;;;6.80;3.20;;;;;;;24.83;60.71;99925.19;117088;1188;22969;-63
2022/09/11 08:28:03;;;;;;;6.90;2.50;;;;;;;24.91;60.56;99923.13;117121;1184;23613;-63
2022/09/11 08:30:37;;;;;;;4.30;2.60;;;;;;;25.03;60.70;99922.17;117170;1186;21866;-63
2022/09/11 08:33:21;;;;;;;6.90;3.00;;;;;;;25.28;61.25;99923.58;117161;1183;21873;-63
2022/09/11 08:35:56;;;;;;;3.90;2.60;;;;;;;25.63;60.89;99921.68;117126;1182;23641;-66
2022/09/11 08:38:24;;;;;;;4.20;2.60;;;;;;;25.83;60.27;99916.07;117126;1186;24157;-61
2022/09/11 08:40:51;;;;;;;5.60;2.90;;;;;;;25.94;60.43;99913.86;117128;1186;22003;-62
2022/09/11 08:43:27;;;;;;;4.80;3.10;;;;;;;26.11;60.28;99916.25;117265;1185;21923;-62
2022/09/11 08:45:55;;;;;;;4.20;2.50;;;;;;;26.27;60.11;99912.91;117251;1186;22926;-66
2022/09/11 08:48:28;;;;;;;3.50;2.60;;;;;;;26.45;60.07;99913.19;117183;1186;21858;-66
2022/09/11 08:50:56;;;;;;;6.00;2.90;;;;;;;26.70;60.23;99912.84;117317;1186;24193;-61
2022/09/11 08:53:24;;;;;;;4.50;2.20;;;;;;;27.02;59.32;99915.10;117172;1186;22619;-67
2022/09/11 08:55:53;;;;;;;5.70;3.50;;;;;;;27.21;58.87;99912.02;117853;1186;21862;-62
2022/09/11 08:58:47;;;;;;;5.30;4.10;;;;;;;27.38;58.74;99911.15;117182;1182;23579;-67
2022/09/11 09:01:56;;;;;;;3.90;3.20;;;;;;;27.49;57.78;99906.30;117833;1186;21793;-62
2022/09/11 09:04:40;;;;;;;5.20;2.30;;;;;;;27.40;57.05;99903.48;117346;1182;22929;-66
2022/09/11 09:07:27;;;;;;;3.80;2.60;;;;;;;27.36;57.50;99897.84;117207;1186;21867;-62
2022/09/11 09:09:59;;;;;;;5.00;2.40;;;;;;;27.49;57.28;99898.73;117119;1184;23617;-68
2022/09/11 09:12:44;;;;;;;3.20;2.30;;;;;;;27.60;57.34;99894.09;117144;1184;22921;-61
2022/09/11 09:15:16;;;;;;;2.80;1.80;;;;;;;27.67;56.73;99894.91;118460;1182;24025;-60
2022/09/11 09:17:52;;;;;;;5.10;2.40;;;;;;;27.82;57.35;99895.70;117056;1187;22104;-67
2022/09/11 09:20:22;;;;;;;4.00;2.10;;;;;;;28.11;57.50;99892.13;117161;1186;22972;-62
2022/09/11 09:22:55;;;;;;;2.70;2.10;;;;;;;28.30;56.47;99889.30;116958;1186;23917;-62
2022/09/11 09:25:22;;;;;;;5.20;1.90;;;;;;;28.34;56.16;99886.56;117017;1186;23657;-61
2022/09/11 09:27:54;;;;;;;4.60;2.60;;;;;;;28.36;56.23;99886.73;116994;1186;21970;-61
2022/09/11 09:30:26;;;;;;;2.70;1.70;;;;;;;28.45;56.12;99883.16;116958;1188;22922;-62
2022/09/11 09:33:24;;;;;;;2.70;1.90;;;;;;;28.71;56.46;99875.98;117048;1187;22884;-61
2022/09/11 09:35:53;;;;;;;3.80;2.30;;;;;;;29.07;55.55;99869.83;117016;1186;22408;-66
2022/09/11 09:38:21;;;;;;;4.30;2.10;;;;;;;29.40;54.80;99868.75;117111;1187;22944;-67
2022/09/11 09:41:11;;;;;;;2.80;2.00;;;;;;;29.56;53.67;99871.38;117042;1187;21919;-67
2022/09/11 09:44:04;;;;;;;2.80;1.70;;;;;;;29.68;54.37;99873.89;116905;1187;22931;-67
2022/09/11 09:46:41;;;;;;;2.20;1.50;;;;;;;29.88;53.82;99875.52;116958;1187;21861;-67
2022/09/11 09:49:28;;;;;;;3.90;1.70;;;;;;;30.05;53.59;99874.36;117088;1187;22637;-61
2022/09/11 09:52:02;;;;;;;7.20;2.30;;;;;;;30.22;52.70;99874.69;119103;1187;21791;-64
2022/09/11 09:54:32;;;;;;;3.40;1.60;;;;;;;30.31;51.63;99873.58;119212;1186;22305;-61
2022/09/11 09:57:01;;;;;;;1.70;1.40;;;;;;;30.29;52.37;99876.05;119083;1186;22325;-62
2022/09/11 09:59:34;;;;;;;1.60;1.20;;;;;;;30.36;52.37;99873.41;118316;1186;23846;-61
2022/09/11 10:02:01;;;;;;;4.40;1.40;;;;;;;30.53;52.15;99877.02;117028;1184;24323;-66
2022/09/11 10:04:30;;;;;;;2.20;1.40;;;;;;;30.73;52.26;99879.66;117058;1186;21886;-61
2022/09/11 10:07:10;;;;;;;1.30;1.20;;;;;;;30.91;52.05;99879.80;117046;1186;21857;-60
2022/09/11 10:09:45;;;;;;;2.60;1.20;;;;;;;30.99;51.63;99876.77;116850;1187;21872;-60
2022/09/11 10:12:21;;;;;;;2.30;1.60;;;;;;;30.93;51.02;99875.73;116946;1186;23465;-60
2022/09/11 10:14:54;;;;;;;3.20;1.40;;;;;;;30.92;51.34;99875.66;116933;1186;21883;-60
2022/09/11 10:17:34;;;;;;;2.60;1.50;;;;;;;31.03;51.47;99876.41;117087;1184;23485;-68
2022/09/11 10:20:17;;;;;;;2.50;1.30;;;;;;;31.01;50.73;99877.42;116861;1188;21848;-59
2022/09/11 10:22:44;;;;;;;1.70;1.40;;;;;;;30.90;49.95;99874.77;117167;1187;21885;-60
2022/09/11 10:25:30;;;;;;;2.30;1.40;;;;;;;30.77;49.63;99872.34;117264;1186;22971;-60
2022/09/11 10:28:11;;;;;;;2.50;1.20;;;;;;;30.64;48.50;99875.91;116982;1189;22975;-61
2022/09/11 10:30:39;;;;;;;2.10;1.30;;;;;;;30.54;48.54;99877.09;117309;1182;22951;-59
2022/09/11 10:33:25;;;;;;;1.70;1.30;;;;;;;30.39;48.90;99878.53;117054;1187;21861;-60
2022/09/11 10:35:54;;;;;;;2.00;1.10;;;;;;;30.33;49.08;99877.50;117117;1187;22701;-66
2022/09/11 10:38:26;;;;;;;1.60;1.30;;;;;;;30.49;49.25;99875.13;117084;1182;23584;-66
2022/09/11 10:41:13;;;;;;;1.60;1.10;;;;;;;30.76;49.17;99880.48;116870;1187;22935;-58
2022/09/11 10:43:49;;;;;;;2.80;1.50;;;;;;;30.97;48.01;99884.40;116919;1184;23656;-66
2022/09/11 10:46:16;;;;;;;1.50;1.10;;;;;;;30.97;46.22;99886.72;117127;1185;23607;-67
2022/09/11 10:49:15;;;;;;;8.30;1.90;;;;;;;30.75;46.09;99889.10;116890;1184;22622;-67
2022/09/11 10:51:56;;;;;;;8.50;3.30;;;;;;;30.43;47.41;99883.68;117101;1187;22925;-61
2022/09/11 10:54:45;;;;;;;4.90;2.30;;;;;;;30.25;47.30;99880.51;116920;1186;21917;-61
2022/09/11 10:57:36;;;;;;;2.70;1.40;;;;;;;30.15;47.65;99878.77;116936;1187;22951;-68
2022/09/11 11:00:19;;;;;;;3.80;1.50;;;;;;;30.17;46.71;99873.50;116792;1187;22949;-68
2022/09/11 11:02:47;;;;;;;7.80;1.80;;;;;;;30.22;47.15;99867.94;119331;1185;21803;-62
2022/09/11 11:05:39;;;;;;;2.30;1.40;;;;;;;30.30;47.12;99864.45;119303;1185;21896;-63
2022/09/11 11:08:26;;;;;;;3.20;2.00;;;;;;;30.52;46.76;99865.17;117273;1182;23038;-69
2022/09/11 11:11:13;;;;;;;1.80;1.10;;;;;;;30.72;46.35;99864.98;117655;1182;22652;-63
2022/09/11 11:14:03;;;;;;;4.10;2.50;;;;;;;30.88;46.09;99863.58;116820;1182;21860;-61
2022/09/11 11:16:38;;;;;;;3.30;1.40;;;;;;;31.09;45.13;99861.07;117075;1182;24152;-69
2022/09/11 11:19:22;;;;;;;5.00;1.80;;;;;;;31.29;46.35;99857.16;117126;1182;22929;-70
2022/09/11 11:21:56;;;;;;;2.60;1.50;;;;;;;31.56;46.09;99853.46;116927;1182;21868;-70
2022/09/11 11:24:36;;;;;;;3.00;1.40;;;;;;;31.84;46.04;99854.96;116992;1181;24176;-69
2022/09/11 11:27:23;;;;;;;2.80;1.00;;;;;;;32.09;46.25;99854.91;117146;1182;22806;-69
2022/09/11 11:30:06;;;;;;;3.40;1.30;;;;;;;32.28;45.67;99850.47;116985;1184;22901;-62
2022/09/11 11:32:52;;;;;;;3.50;1.40;;;;;;;32.48;45.79;99853.48;117056;1182;21859;-62
2022/09/11 11:35:22;;;;;;;12.40;2.00;;;;;;;32.62;46.56;99854.70;116968;1183;23582;-62
2022/09/11 11:37:50;;;;;;;15.80;2.20;;;;;;;32.79;46.36;99849.43;117084;1183;21852;-62
2022/09/11 11:40:36;;;;;;;17.80;2.60;;;;;;;32.96;45.87;99853.86;117254;1182;21861;-62
2022/09/11 11:43:10;;;;;;;7.30;1.90;;;;;;;33.10;45.82;99854.10;117161;1182;22929;-72
2022/09/11 11:45:43;;;;;;;15.20;2.00;;;;;;;33.21;45.84;99855.32;117179;1186;21867;-63
2022/09/11 11:48:37;;;;;;;2.10;1.10;;;;;;;33.20;45.51;99845.35;117290;1186;23350;-63
2022/09/11 11:51:07;;;;;;;4.10;1.40;;;;;;;33.10;44.66;99840.48;117177;1186;21826;-73